Date,TemperatureHighF,TemperatureAvgF,TemperatureLowF,DewpointHighF,DewpointAvgF,DewpointLowF,HumidityHigh,HumidityAvg,HumidityLow,PressureMaxIn,PressureMinIn,WindSpeedMaxMPH,WindSpeedAvgMPH,GustSpeedMaxMPH,PrecipitationSumIn
2013-1-1,23,13,3,-100,-100,-100,0,0,100,0.00,40.00,0,-999,0,0.01
2013-1-2,29,22,17,-100,-100,-100,0,0,100,0.00,40.00,0,-999,0,0.01
2013-1-3,33,24,17,-100,-100,-100,0,0,100,0.00,40.00,0,-999,0,0.00
2013-1-4,35,23,17,-100,-100,-100,0,0,100,0.00,40.00,0,-999,0,0.00
2013-1-5,36,27,16,-100,-100,-100,0,0,100,0.00,40.00,0,-999,0,0.00
2013-1-6,34,27,19,-100,-100,-100,0,0,100,0.00,40.00,0,-999,0,0.00
2013-1-7,33,24,16,-100,-100,-100,0,0,100,0.00,40.00,0,-999,0,0.00
2013-1-8,33,25,20,-100,-100,-100,0,0,100,0.00,40.00,0,-999,0,0.00
2013-1-9,42,32,22,-100,-100,-100,0,0,100,0.00,40.00,0,-999,0,0.00
2013-1-10,31,18,3,-100,-100,-100,0,0,100,0.00,40.00,0,-999,0,0.02
2013-1-11,8,1,-10,-100,-100,-100,0,0,100,0.00,40.00,0,-999,0,0.01
2013-1-12,6,-4,-12,-100,-100,-100,0,0,100,0.00,40.00,0,-999,0,0.00
2013-1-13,2,-8,-14,-100,-100,-100,0,0,100,0.00,40.00,0,-999,0,0.00
2013-1-14,8,-4,-14,-100,-100,-100,0,0,100,0.00,40.00,0,-999,0,0.01
2013-1-15,24,15,8,-100,-100,-100,0,0,100,0.00,40.00,0,-999,0,0.01
2013-1-16,34,27,19,-100,-100,-100,0,0,100,0.00,40.00,0,-999,0,0.01
2013-1-17,37,26,19,-100,-100,-100,0,0,100,0.00,40.00,0,-999,0,0.00
2013-1-18,37,23,17,-100,-100,-100,0,0,100,0.00,40.00,0,-999,0,0.00
2013-1-19,41,28,20,-100,-100,-100,0,0,100,0.00,40.00,0,-999,0,0.00
2013-1-20,37,26,20,-100,-100,-100,0,0,100,0.00,40.00,0,-999,0,0.00
2013-1-21,44,31,24,-100,-100,-100,0,0,100,0.00,40.00,0,-999,0,0.00
2013-1-22,46,36,27,-100,-100,-100,0,0,100,0.00,40.00,0,-999,0,0.00
2013-1-23,43,38,31,-100,-100,-100,0,0,100,0.00,40.00,0,-999,0,0.00
2013-1-24,36,33,27,-100,-100,-100,0,0,100,0.00,40.00,0,-999,0,0.00
2013-1-25,38,31,26,-100,-100,-100,0,0,100,0.00,40.00,0,-999,0,0.00
2013-1-26,36,30,25,-100,-100,-100,0,0,100,0.00,40.00,0,-999,0,0.00
2013-1-27,30,22,11,-100,-100,-100,0,0,100,0.00,40.00,0,-999,0,0.03
2013-1-28,16,7,-5,-100,-100,-100,0,0,100,0.00,40.00,0,-999,0,0.01
2013-1-29,19,15,11,-100,-100,-100,0,0,100,0.00,40.00,0,-999,0,0.03
2013-1-30,27,23,15,-100,-100,-100,0,0,100,0.00,40.00,0,-999,0,0.01
2013-1-31,34,22,15,-100,-100,-100,0,0,100,0.00,40.00,0,-999,0,0.00
2013-2-1,31,20,13,-100,-100,-100,0,0,100,0.00,40.00,0,-999,0,0.00
2013-2-2,37,26,18,-100,-100,-100,0,0,100,0.00,40.00,0,-999,0,0.00
2013-2-3,36,27,21,-100,-100,-100,0,0,100,0.00,40.00,0,-999,0,0.00
2013-2-4,38,25,17,-100,-100,-100,0,0,100,0.00,40.00,0,-999,0,0.00
2013-2-5,42,30,20,-100,-100,-100,0,0,100,0.00,40.00,0,-999,0,0.00
2013-2-6,30,22,14,-100,-100,-100,0,0,100,0.00,40.00,0,-999,0,0.00
2013-2-7,33,24,13,-100,-100,-100,0,0,100,0.00,40.00,0,-999,0,0.00
2013-2-8,26,21,15,-100,-100,-100,0,0,100,0.00,40.00,0,-999,0,0.02
2013-2-9,19,14,9,-100,-100,-100,0,0,100,0.00,40.00,0,-999,0,0.01
2013-2-10,18,11,-1,-100,-100,-100,0,0,100,0.00,40.00,0,-999,0,0.01
2013-2-11,16,6,1,-100,-100,-100,0,0,100,0.00,40.00,0,-999,0,0.00
2013-2-12,28,16,6,-100,-100,-100,0,0,100,0.00,40.00,0,-999,0,0.00
2013-2-13,33,23,16,-100,-100,-100,0,0,100,0.00,40.00,0,-999,0,0.01
2013-2-14,30,22,15,-100,-100,-100,0,0,100,0.00,40.00,0,-999,0,0.00
2013-2-15,39,24,14,-100,-100,-100,0,0,100,0.00,40.00,0,-999,0,0.00
2013-2-16,43,26,18,-100,-100,-100,0,0,100,0.00,40.00,0,-999,0,0.00
2013-2-20,24,18,7,-100,-100,-100,0,0,100,0.00,40.00,0,-999,0,0.00
2013-2-21,18,8,-3,-100,-100,-100,0,0,100,0.00,40.00,0,-999,0,0.00
2013-2-22,23,16,4,-100,-100,-100,0,0,100,0.00,40.00,0,-999,0,0.01
2013-2-23,25,18,9,-100,-100,-100,0,0,100,0.00,40.00,0,-999,0,0.00
2013-2-24,5,3,1,-100,-100,-100,0,0,100,0.00,40.00,0,-999,0,0.01
2013-2-25,31,18,8,-100,-100,-100,0,0,100,0.00,40.00,0,-999,0,0.00
2013-2-26,20,11,2,-100,-100,-100,0,0,100,0.00,40.00,0,-999,0,0.00
2013-2-27,29,13,1,-100,-100,-100,0,0,100,0.00,40.00,0,-999,0,0.00
2013-2-28,35,24,12,-100,-100,-100,0,0,100,0.00,40.00,0,-999,0,0.01
2013-3-1,42,30,19,-100,-100,-100,0,0,100,0.00,40.00,0,-999,0,0.00
2013-3-2,47,36,25,-100,-100,-100,0,0,100,0.00,40.00,0,-999,0,0.00
2013-3-3,38,32,28,-100,-100,-100,0,0,100,0.00,40.00,0,-999,0,0.00
2013-3-4,32,25,19,-100,-100,-100,0,0,100,0.00,40.00,0,-999,0,0.00
2013-3-5,41,32,18,-100,-100,-100,0,0,100,0.00,40.00,0,-999,0,0.00
2013-3-6,36,32,26,-100,-100,-100,0,0,100,0.00,40.00,0,-999,0,0.00
2013-3-7,30,27,24,-100,-100,-100,0,0,100,0.00,40.00,0,-999,0,0.00
2013-3-8,29,26,23,-100,-100,-100,0,0,100,0.00,40.00,0,-999,0,0.01
2013-3-9,30,24,16,-100,-100,-100,0,0,100,0.00,40.00,0,-999,0,0.01
2013-3-10,40,29,17,-100,-100,-100,0,0,100,0.00,40.00,0,-999,0,0.00
2013-3-11,39,27,20,-100,-100,-100,0,0,100,0.00,40.00,0,-999,0,0.00
2013-3-12,44,33,22,-100,-100,-100,0,0,100,0.00,40.00,0,-999,0,0.00
2013-3-13,52,37,26,-100,-100,-100,0,0,100,0.00,40.00,0,-999,0,0.00
2013-3-14,55,44,32,-100,-100,-100,0,0,100,0.00,40.00,0,-999,0,0.00
2013-3-15,51,42,33,-100,-100,-100,0,0,100,0.00,40.00,0,-999,0,0.00
2013-3-16,44,37,30,-100,-100,-100,0,0,100,0.00,40.00,0,-999,0,0.00
2013-3-17,37,31,26,-100,-100,-100,0,0,100,0.00,40.00,0,-999,0,0.00
2013-3-18,36,30,22,-100,-100,-100,0,0,100,0.00,40.00,0,-999,0,0.00
2013-3-19,38,34,27,-100,-100,-100,0,0,100,0.00,40.00,0,-999,0,0.00
2013-3-20,42,38,33,-100,-100,-100,0,0,100,0.00,40.00,0,-999,0,0.00
2013-3-21,34,28,20,-100,-100,-100,0,0,100,0.00,40.00,0,-999,0,0.00
2013-3-22,26,19,11,-100,-100,-100,0,0,100,0.00,40.00,0,-999,0,0.00
2013-3-23,23,14,5,-100,-100,-100,0,0,100,0.00,40.00,0,-999,0,0.00
2013-3-24,32,23,8,-100,-100,-100,0,0,100,0.00,40.00,0,-999,0,0.00
2013-3-25,41,34,25,-100,-100,-100,0,0,100,0.00,40.00,0,-999,0,0.01
2013-3-26,44,36,30,-100,-100,-100,0,0,100,0.00,40.00,0,-999,0,0.00
2013-3-27,44,36,27,-100,-100,-100,0,0,100,0.00,40.00,0,-999,0,0.00
2013-3-28,45,37,28,-100,-100,-100,0,0,100,0.00,40.00,0,-999,0,0.00
2013-3-29,46,37,30,-100,-100,-100,0,0,100,0.00,40.00,0,-999,0,0.00
2013-3-30,48,38,31,-100,-100,-100,0,0,100,0.00,40.00,0,-999,0,0.00
2013-3-31,46,38,33,-100,-100,-100,0,0,100,0.00,40.00,0,-999,0,0.00
2013-4-1,33,29,28,-100,-100,-100,0,0,100,0.00,40.00,0,-999,0,0.03
2013-4-2,40,33,29,-100,-100,-100,0,0,100,0.00,40.00,0,-999,0,0.03
2013-4-3,47,36,26,-100,-100,-100,0,0,100,0.00,40.00,0,-999,0,0.02
2013-4-4,48,41,33,-100,-100,-100,0,0,100,0.00,40.00,0,-999,0,0.00
2013-4-5,42,37,32,-100,-100,-100,0,0,100,0.00,40.00,0,-999,0,0.01
2013-4-6,41,34,28,-100,-100,-100,0,0,100,0.00,40.00,0,-999,0,0.00
2013-4-7,44,36,28,-100,-100,-100,0,0,100,0.00,40.00,0,-999,0,0.00
2013-4-8,36,27,22,-100,-100,-100,0,0,100,0.00,40.00,0,-999,0,0.02
2013-4-9,25,22,18,-100,-100,-100,0,0,100,0.00,40.00,0,-999,0,0.02
2013-4-10,43,32,18,-100,-100,-100,0,0,100,0.00,40.00,0,-999,0,0.00
2013-4-11,42,35,29,-100,-100,-100,0,0,100,0.00,40.00,0,-999,0,0.01
2013-4-12,45,34,22,-100,-100,-100,0,0,100,0.00,40.00,0,-999,0,0.01
2013-4-13,47,39,32,-100,-100,-100,0,0,100,0.00,40.00,0,-999,0,0.01
2013-4-14,41,32,24,-100,-100,-100,0,0,100,0.00,40.00,0,-999,0,0.01
2013-4-15,31,26,21,-100,-100,-100,0,0,100,0.00,40.00,0,-999,0,0.02
2013-4-16,23,19,15,-100,-100,-100,0,0,100,0.00,40.00,0,-999,0,0.02
2013-4-17,23,18,14,-100,-100,-100,0,0,100,0.00,40.00,0,-999,0,0.01
2013-4-18,33,22,9,-100,-100,-100,0,0,100,0.00,40.00,0,-999,0,0.01
2013-4-19,40,29,15,-100,-100,-100,0,0,100,0.00,40.00,0,-999,0,0.01
2013-4-20,41,33,26,-100,-100,-100,0,0,100,0.00,40.00,0,-999,0,0.01
2013-4-21,48,36,22,-100,-100,-100,0,0,100,0.00,40.00,0,-999,0,0.00
2013-4-22,44,36,26,-100,-100,-100,0,0,100,0.00,40.00,0,-999,0,0.00
2013-4-23,39,27,13,-100,-100,-100,0,0,100,0.00,40.00,0,-999,0,0.00
2013-4-24,39,35,28,-100,-100,-100,0,0,100,0.00,40.00,0,-999,0,0.00
2013-4-25,47,37,24,-100,-100,-100,0,0,100,0.00,40.00,0,-999,0,0.01
2013-4-26,51,40,28,-100,-100,-100,0,0,100,0.00,40.00,0,-999,0,0.00
2013-4-27,54,43,32,-100,-100,-100,0,0,100,0.00,40.00,0,-999,0,0.00
2013-4-28,58,45,34,-100,-100,-100,0,0,100,0.00,40.00,0,-999,0,0.00
2013-4-29,55,46,35,-100,-100,-100,0,0,100,0.00,40.00,0,-999,0,0.00
2013-4-30,49,41,30,-100,-100,-100,0,0,100,0.00,40.00,0,-999,0,0.00
2013-5-1,37,30,21,-100,-100,-100,0,0,100,0.00,40.00,0,-999,0,0.00
2013-5-2,48,36,24,-100,-100,-100,0,0,100,0.00,40.00,0,-999,0,0.00
2013-5-3,53,42,28,-100,-100,-100,0,0,100,0.00,40.00,0,-999,0,0.00
2013-5-4,45,38,29,-100,-100,-100,0,0,100,0.00,40.00,0,-999,0,0.00
2013-5-5,50,43,36,-100,-100,-100,0,0,100,0.00,40.00,0,-999,0,0.00
2013-5-6,41,36,30,-100,-100,-100,0,0,100,0.00,40.00,0,-999,0,0.01
2013-5-7,41,33,26,-100,-100,-100,0,0,100,0.00,40.00,0,-999,0,0.01
2013-5-8,44,38,29,-100,-100,-100,0,0,100,0.00,40.00,0,-999,0,0.00
2013-5-9,48,41,34,-100,-100,-100,0,0,100,0.00,40.00,0,-999,0,0.01
2013-5-10,53,47,38,-100,-100,-100,0,0,100,0.00,40.00,0,-999,0,0.01
2013-5-11,57,46,38,-100,-100,-100,0,0,100,0.00,40.00,0,-999,0,0.00
2013-5-12,62,49,36,-100,-100,-100,0,0,100,0.00,40.00,0,-999,0,0.00
2013-5-13,65,52,42,-100,-100,-100,0,0,100,0.00,40.00,0,-999,0,0.00
2013-5-14,63,52,40,-100,-100,-100,0,0,100,0.00,40.00,0,-999,0,0.00
2013-5-15,59,50,41,-100,-100,-100,0,0,100,0.00,40.00,0,-999,0,0.01
2013-5-16,55,47,36,-100,-100,-100,0,0,100,0.00,40.00,0,-999,0,0.00
2013-5-17,42,38,33,-100,-100,-100,0,0,100,0.00,40.00,0,-999,0,0.02
2013-5-18,45,36,29,-100,-100,-100,0,0,100,0.00,40.00,0,-999,0,0.02
2013-5-19,38,34,30,-100,-100,-100,0,0,100,0.00,40.00,0,-999,0,0.01
2013-5-20,50,37,25,-100,-100,-100,0,0,100,0.00,40.00,0,-999,0,0.01
2013-5-21,56,47,33,-100,-100,-100,0,0,100,0.00,40.00,0,-999,0,0.00
2013-5-22,58,47,33,-100,-100,-100,0,0,100,0.00,40.00,0,-999,0,0.00
2013-5-23,52,40,29,-100,-100,-100,0,0,100,0.00,40.00,0,-999,0,0.01
2013-5-24,54,42,27,-100,-100,-100,0,0,100,0.00,40.00,0,-999,0,0.01
2013-5-25,57,47,36,-100,-100,-100,0,0,100,0.00,40.00,0,-999,0,0.00
2013-5-26,56,47,36,-100,-100,-100,0,0,100,0.00,40.00,0,-999,0,0.00
2013-5-27,55,44,31,-100,-100,-100,0,0,100,0.00,40.00,0,-999,0,0.00
2013-5-28,40,36,32,-100,-100,-100,0,0,100,0.00,40.00,0,-999,0,0.02
2013-5-29,49,38,27,-100,-100,-100,0,0,100,0.00,40.00,0,-999,0,0.01
2013-5-30,54,42,30,-100,-100,-100,0,0,100,0.00,40.00,0,-999,0,0.00
2013-5-31,55,44,33,-100,-100,-100,0,0,100,0.00,40.00,0,-999,0,0.00
2013-6-1,64,49,34,-100,-100,-100,0,0,100,0.00,40.00,0,-999,0,0.00
2013-6-2,68,58,45,-100,-100,-100,0,0,100,0.00,40.00,0,-999,0,0.00
2013-6-3,64,53,40,-100,-100,-100,0,0,100,0.00,40.00,0,-999,0,0.00
2013-6-4,65,53,40,-100,-100,-100,0,0,100,0.00,40.00,0,-999,0,0.00
2013-6-5,65,53,39,-100,-100,-100,0,0,100,0.00,40.00,0,-999,0,0.00
2013-6-6,66,55,42,-100,-100,-100,0,0,100,0.00,40.00,0,-999,0,0.00
2013-6-7,69,55,43,-100,-100,-100,0,0,100,0.00,40.00,0,-999,0,0.00
2013-6-8,70,57,45,-100,-100,-100,0,0,100,0.00,40.00,0,-999,0,0.00
2013-6-9,75,62,47,-100,-100,-100,0,0,100,0.00,40.00,0,-999,0,0.00
2013-6-10,66,58,48,-100,-100,-100,0,0,100,0.00,40.00,0,-999,0,0.00
2013-6-11,63,52,41,-100,-100,-100,0,0,100,0.00,40.00,0,-999,0,0.00
2013-6-12,65,57,44,-100,-100,-100,0,0,100,0.00,40.00,0,-999,0,0.00
2013-6-13,64,54,38,-100,-100,-100,0,0,100,0.00,40.00,0,-999,0,0.00
2013-6-14,60,48,34,-100,-100,-100,0,0,100,0.00,40.00,0,-999,0,0.00
2013-6-15,63,54,42,-100,-100,-100,0,0,100,0.00,40.00,0,-999,0,0.00
2013-6-16,65,55,40,-100,-100,-100,0,0,100,0.00,40.00,0,-999,0,0.00
2013-6-17,68,59,42,-100,-100,-100,0,0,100,0.00,40.00,0,-999,0,0.00
2013-6-18,66,60,41,-100,-100,-100,0,0,100,0.00,40.00,0,-999,0,0.00
2013-6-19,55,49,35,-100,-100,-100,0,0,100,0.00,40.00,0,-999,0,0.00
2013-6-20,54,41,31,-100,-100,-100,0,0,100,0.00,40.00,0,-999,0,0.00
2013-6-22,61,53,39,-100,-100,-100,0,0,100,0.00,40.00,0,-999,0,0.00
2013-6-23,64,54,45,-100,-100,-100,0,0,100,0.00,40.00,0,-999,0,0.00
2013-6-24,54,50,43,-100,-100,-100,0,0,100,0.00,40.00,0,-999,0,0.00
2013-6-25,63,54,44,-100,-100,-100,0,0,100,0.00,40.00,0,-999,0,0.00
2013-6-26,71,61,46,-100,-100,-100,0,0,100,0.00,40.00,0,-999,0,0.00
2013-6-27,74,63,49,-100,-100,-100,0,0,100,0.00,40.00,0,-999,0,0.00
2013-6-28,76,65,57,-100,-100,-100,0,0,100,0.00,40.00,0,-999,0,0.01
2013-6-29,77,66,52,-100,-100,-100,0,0,100,0.00,40.00,0,-999,0,0.01
2013-6-30,75,67,55,-100,-100,-100,0,0,100,0.00,40.00,0,-999,0,0.00
2013-7-1,78,67,55,-100,-100,-100,0,0,100,0.00,40.00,0,-999,0,0.00
2013-7-2,77,68,58,-100,-100,-100,0,0,100,0.00,40.00,0,-999,0,0.00
2013-7-3,74,64,55,-100,-100,-100,0,0,100,0.00,40.00,0,-999,0,0.01
2013-7-4,72,62,53,-100,-100,-100,0,0,100,0.00,40.00,0,-999,0,0.00
2013-7-5,69,60,49,-100,-100,-100,0,0,100,0.00,40.00,0,-999,0,0.00
2013-7-6,69,59,49,-100,-100,-100,0,0,100,0.00,40.00,0,-999,0,0.00
2013-7-7,68,59,52,-100,-100,-100,0,0,100,0.00,40.00,0,-999,0,0.00
2013-7-8,71,59,50,-100,-100,-100,0,0,100,0.00,40.00,0,-999,0,0.00
2013-7-9,72,62,49,-100,-100,-100,0,0,100,0.00,40.00,0,-999,0,0.00
2013-7-10,75,64,48,-100,-100,-100,0,0,100,0.00,40.00,0,-999,0,0.00
2013-7-11,60,54,49,-100,-100,-100,0,0,100,0.00,40.00,0,-999,0,0.01
2013-7-12,62,52,44,-100,-100,-100,0,0,100,0.00,40.00,0,-999,0,0.01
2013-7-13,64,56,44,-100,-100,-100,0,0,100,0.00,40.00,0,-999,0,0.01
2013-7-14,67,59,45,-100,-100,-100,0,0,100,0.00,40.00,0,-999,0,0.00
2013-7-15,67,59,51,-100,-100,-100,0,0,100,0.00,40.00,0,-999,0,0.00
2013-7-16,70,61,54,-100,-100,-100,0,0,100,0.00,40.00,0,-999,0,0.00
2013-7-17,70,60,49,-100,-100,-100,0,0,100,0.00,40.00,0,-999,0,0.00
2013-7-18,73,65,49,-100,-100,-100,0,0,100,0.00,40.00,0,-999,0,0.00
2013-7-19,74,63,55,-100,-100,-100,0,0,100,0.00,40.00,0,-999,0,0.00
2013-7-20,74,63,51,-100,-100,-100,0,0,100,0.00,40.00,0,-999,0,0.00
2013-7-21,74,64,50,-100,-100,-100,0,0,100,0.00,40.00,0,-999,0,0.00
2013-7-22,74,66,49,-100,-100,-100,0,0,100,0.00,40.00,0,-999,0,0.00
2013-7-23,72,62,53,-100,-100,-100,0,0,100,0.00,40.00,0,-999,0,0.00
2013-7-24,65,60,52,-100,-100,-100,0,0,100,0.00,40.00,0,-999,0,0.01
2013-7-25,72,62,49,-100,-100,-100,0,0,100,0.00,40.00,0,-999,0,0.00
2013-7-26,71,60,53,-100,-100,-100,0,0,100,0.00,40.00,0,-999,0,0.01
2013-7-27,57,52,45,-100,-100,-100,0,0,100,0.00,40.00,0,-999,0,0.01
2013-7-28,67,56,44,-100,-100,-100,0,0,100,0.00,40.00,0,-999,0,0.01
2013-7-29,62,54,47,-100,-100,-100,0,0,100,0.00,40.00,0,-999,0,0.01
2013-7-30,68,59,49,-100,-100,-100,0,0,100,0.00,40.00,0,-999,0,0.00
2013-7-31,69,62,49,-100,-100,-100,0,0,100,0.00,40.00,0,-999,0,0.00
2013-8-1,69,62,52,-100,-100,-100,0,0,100,0.00,40.00,0,-999,0,0.00
2013-8-2,70,59,44,-100,-100,-100,0,0,100,0.00,40.00,0,-999,0,0.00
2013-8-3,70,59,47,-100,-100,-100,0,0,100,0.00,40.00,0,-999,0,0.00
2013-8-4,68,60,52,-100,-100,-100,0,0,100,0.00,40.00,0,-999,0,0.00
2013-8-5,69,61,47,-100,-100,-100,0,0,100,0.00,40.00,0,-999,0,0.00
2013-8-6,69,62,48,-100,-100,-100,0,0,100,0.00,40.00,0,-999,0,0.00
2013-8-7,68,58,47,-100,-100,-100,0,0,100,0.00,40.00,0,-999,0,0.00
2013-8-8,68,55,47,-100,-100,-100,0,0,100,0.00,40.00,0,-999,0,0.00
2013-8-9,64,56,45,-100,-100,-100,0,0,100,0.00,40.00,0,-999,0,0.00
2013-8-10,65,57,46,-100,-100,-100,0,0,100,0.00,40.00,0,-999,0,0.00
2013-8-11,66,57,47,-100,-100,-100,0,0,100,0.00,40.00,0,-999,0,0.00
2013-8-12,68,57,45,-100,-100,-100,0,0,100,0.00,40.00,0,-999,0,0.00
2013-8-13,70,61,44,-100,-100,-100,0,0,100,0.00,40.00,0,-999,0,0.00
2013-8-14,70,59,47,-100,-100,-100,0,0,100,0.00,40.00,0,-999,0,0.00
2013-8-15,72,62,47,-100,-100,-100,0,0,100,0.00,40.00,0,-999,0,0.00
2013-8-16,72,61,51,-100,-100,-100,0,0,100,0.00,40.00,0,-999,0,0.00
2013-8-17,72,63,56,-100,-100,-100,0,0,100,0.00,40.00,0,-999,0,0.00
2013-8-18,68,58,49,-100,-100,-100,0,0,100,0.00,40.00,0,-999,0,0.01
2013-8-19,67,55,50,-100,-100,-100,0,0,100,0.00,40.00,0,-999,0,0.01
2013-8-20,62,53,49,-100,-100,-100,0,0,100,0.00,40.00,0,-999,0,0.01
2013-8-21,65,56,46,-100,-100,-100,0,0,100,0.00,40.00,0,-999,0,0.01
2013-8-22,64,57,50,-100,-100,-100,0,0,100,0.00,40.00,0,-999,0,0.00
2013-8-23,58,55,52,-100,-100,-100,0,0,100,0.00,40.00,0,-999,0,0.01
2013-8-24,58,52,46,-100,-100,-100,0,0,100,0.00,40.00,0,-999,0,0.02
2013-8-25,62,54,45,-100,-100,-100,0,0,100,0.00,40.00,0,-999,0,0.02
2013-8-26,57,51,45,-100,-100,-100,0,0,100,0.00,40.00,0,-999,0,0.00
2013-8-27,56,52,48,-100,-100,-100,0,0,100,0.00,40.00,0,-999,0,0.00
2013-8-28,64,58,53,-100,-100,-100,0,0,100,0.00,40.00,0,-999,0,0.00
2013-8-29,67,59,49,-100,-100,-100,0,0,100,0.00,40.00,0,-999,0,0.00
2013-8-30,70,58,49,-100,-100,-100,0,0,100,0.00,40.00,0,-999,0,0.01
2013-8-31,62,55,50,-100,-100,-100,0,0,100,0.00,40.00,0,-999,0,0.01
2013-9-1,62,52,47,-100,-100,-100,0,0,100,0.00,40.00,0,-999,0,0.02
2013-9-2,64,54,46,-100,-100,-100,0,0,100,0.00,40.00,0,-999,0,0.02
2013-9-3,57,53,50,-100,-100,-100,0,0,100,0.00,40.00,0,-999,0,0.03
2013-9-4,64,55,47,-100,-100,-100,0,0,100,0.00,40.00,0,-999,0,0.02
2013-9-5,64,55,47,-100,-100,-100,0,0,100,0.00,40.00,0,-999,0,0.02
2013-9-6,61,55,51,-100,-100,-100,0,0,100,0.00,40.00,0,-999,0,0.01
2013-9-7,57,50,46,-100,-100,-100,0,0,100,0.00,40.00,0,-999,0,0.03
2013-9-8,60,52,45,-100,-100,-100,0,0,100,0.00,40.00,0,-999,0,0.01
2013-9-9,60,52,41,-100,-100,-100,0,0,100,0.00,40.00,0,-999,0,1.19
2013-9-10,55,50,44,-100,-100,-100,0,0,100,0.00,40.00,0,-999,0,1.19
2013-9-11,48,47,45,-100,-100,-100,0,0,100,0.00,40.00,0,-999,0,0.03
2013-9-12,49,46,45,-100,-100,-100,0,0,100,0.00,40.00,0,-999,0,0.02
2013-9-13,51,46,42,-100,-100,-100,0,0,100,0.00,40.00,0,-999,0,0.01
2013-9-14,54,45,40,-100,-100,-100,0,0,100,0.00,40.00,0,-999,0,0.00
2013-9-15,59,50,40,-100,-100,-100,0,0,100,0.00,40.00,0,-999,0,0.00
2013-9-16,60,53,47,-100,-100,-100,0,0,100,0.00,40.00,0,-999,0,0.00
2013-9-17,61,54,45,-100,-100,-100,0,0,100,0.00,40.00,0,-999,0,0.00
2013-9-18,42,36,34,-100,-100,-100,0,0,100,0.00,40.00,0,-999,0,0.00
2013-9-19,55,42,32,-100,-100,-100,0,0,100,0.00,40.00,0,-999,0,0.00
2013-9-20,58,50,40,-100,-100,-100,0,0,100,0.00,40.00,0,-999,0,0.00
2013-9-21,57,50,45,-100,-100,-100,0,0,100,0.00,40.00,0,-999,0,0.00
2013-9-22,45,38,34,-100,-100,-100,0,0,100,0.00,40.00,0,-999,0,0.01
2013-9-23,53,38,29,-100,-100,-100,0,0,100,0.00,40.00,0,-999,0,0.00
2013-9-24,57,49,38,-100,-100,-100,0,0,100,0.00,40.00,0,-999,0,0.00
2013-9-29,54,44,35,-100,-100,-100,0,0,100,0.00,40.00,0,-999,0,0.00
2013-9-30,56,48,40,-100,-100,-100,0,0,100,0.00,40.00,0,-999,0,0.00
2013-10-1,53,46,44,-100,-100,-100,0,0,100,0.00,40.00,0,-999,0,0.00
2013-10-2,53,47,38,-100,-100,-100,0,0,100,0.00,40.00,0,-999,0,0.00
2013-10-3,35,29,25,-100,-100,-100,0,0,100,0.00,40.00,0,-999,0,0.01
2013-10-4,35,28,22,-100,-100,-100,0,0,100,0.00,40.00,0,-999,0,0.00
2013-10-5,46,34,25,-100,-100,-100,0,0,100,0.00,40.00,0,-999,0,0.00
2013-10-6,60,44,34,-100,-100,-100,0,0,100,0.00,40.00,0,-999,0,0.00
2013-10-7,58,48,40,-100,-100,-100,0,0,100,0.00,40.00,0,-999,0,0.00
2013-10-8,47,39,31,-100,-100,-100,0,0,100,0.00,40.00,0,-999,0,0.00
2013-10-9,39,36,30,-100,-100,-100,0,0,100,0.00,40.00,0,-999,0,0.02
2013-10-10,34,30,26,-100,-100,-100,0,0,100,0.00,40.00,0,-999,0,0.02
2013-10-11,40,31,21,-100,-100,-100,0,0,100,0.00,40.00,0,-999,0,0.00
2013-10-12,43,36,27,-100,-100,-100,0,0,100,0.00,40.00,0,-999,0,0.00
2013-10-13,34,32,29,-100,-100,-100,0,0,100,0.00,40.00,0,-999,0,0.03
2013-10-14,35,29,23,-100,-100,-100,0,0,100,0.00,40.00,0,-999,0,0.01
2013-10-15,32,27,21,-100,-100,-100,0,0,100,0.00,40.00,0,-999,0,0.00
2013-10-16,43,28,18,-100,-100,-100,0,0,100,0.00,40.00,0,-999,0,0.00
2013-10-17,42,36,23,-100,-100,-100,0,0,100,0.00,40.00,0,-999,0,0.00
2013-10-18,45,33,25,-100,-100,-100,0,0,100,0.00,40.00,0,-999,0,0.00
2013-10-19,48,33,26,-100,-100,-100,0,0,100,0.00,40.00,0,-999,0,0.00
2013-10-20,47,39,29,-100,-100,-100,0,0,100,0.00,40.00,0,-999,0,0.00
2013-10-21,43,33,30,-100,-100,-100,0,0,100,0.00,40.00,0,-999,0,0.00
2013-10-22,50,40,31,-100,-100,-100,0,0,100,0.00,40.00,0,-999,0,0.00
2013-10-23,40,34,31,-100,-100,-100,0,0,100,0.00,40.00,0,-999,0,0.00
2013-10-24,50,44,34,-100,-100,-100,0,0,100,0.00,40.00,0,-999,0,0.00
2013-10-25,35,33,32,-100,-100,-100,0,0,100,0.00,40.00,0,-999,0,0.00
2013-10-26,50,40,33,-100,-100,-100,0,0,100,0.00,40.00,0,-999,0,0.00
2013-10-27,45,44,41,-100,-100,-100,0,0,100,0.00,40.00,0,-999,0,0.00
2013-11-2,50,41,35,-100,-100,-100,0,0,100,0.00,40.00,0,-999,0,0.00
2013-11-3,31,26,14,-100,-100,-100,0,0,100,0.00,40.00,0,-999,0,0.01
2013-11-4,24,20,14,-100,-100,-100,0,0,100,0.00,40.00,0,-999,0,0.00
2013-11-5,30,19,7,-100,-100,-100,0,0,100,0.00,40.00,0,-999,0,0.00
2013-11-6,34,30,28,-100,-100,-100,0,0,100,0.00,40.00,0,-999,0,0.00
2013-11-7,49,39,30,-100,-100,-100,0,0,100,0.00,40.00,0,-999,0,0.00
2013-11-8,41,36,31,-100,-100,-100,0,0,100,0.00,40.00,0,-999,0,0.00
2013-11-12,51,43,34,-100,-100,-100,0,0,100,0.00,40.00,0,-999,0,0.00
2013-11-13,45,42,40,-100,-100,-100,0,0,100,0.00,40.00,0,-999,0,0.00
2013-11-14,42,33,29,-100,-100,-100,0,0,100,0.00,40.00,0,-999,0,0.00
2013-11-15,26,23,18,-100,-100,-100,0,0,100,0.00,40.00,0,-999,0,0.00
2013-11-16,32,27,24,-100,-100,-100,0,0,100,0.00,40.00,0,-999,0,0.00
2013-11-17,34,30,27,-100,-100,-100,0,0,100,0.00,40.00,0,-999,0,0.00
2013-11-18,45,33,26,-100,-100,-100,0,0,100,0.00,40.00,0,-999,0,0.00
2013-11-19,35,30,24,-100,-100,-100,0,0,100,0.00,40.00,0,-999,0,0.00
2013-11-20,31,29,26,-100,-100,-100,0,0,100,0.00,40.00,0,-999,0,0.01
2013-11-21,29,25,22,-100,-100,-100,0,0,100,0.00,40.00,0,-999,0,0.02
2013-11-22,28,27,24,-100,-100,-100,0,0,100,0.00,40.00,0,-999,0,0.00
2013-11-23,32,30,23,-100,-100,-100,0,0,100,0.00,40.00,0,-999,0,0.02
2013-11-24,31,26,21,-100,-100,-100,0,0,100,0.00,40.00,0,-999,0,0.00
2013-11-25,40,34,30,-100,-100,-100,0,0,100,0.00,40.00,0,-999,0,0.00
2013-11-26,35,32,31,-100,-100,-100,0,0,100,0.00,40.00,0,-999,0,0.00
2013-11-27,42,35,29,-100,-100,-100,0,0,100,0.00,40.00,0,-999,0,0.00
2013-11-28,37,31,27,-100,-100,-100,0,0,100,0.00,40.00,0,-999,0,0.00
2013-11-29,33,26,20,-100,-100,-100,0,0,100,0.00,40.00,0,-999,0,0.00
2013-11-30,32,25,18,-100,-100,-100,0,0,100,0.00,40.00,0,-999,0,0.00
2013-12-2,40,38,36,-100,-100,-100,0,0,100,0.00,40.00,0,-999,0,0.02
2013-12-3,28,13,6,-100,-100,-100,0,0,100,0.00,40.00,0,-999,0,0.04
2013-12-4,4,-1,-8,-100,-100,-100,0,0,100,0.00,40.00,0,-999,0,0.00
2013-12-5,5,-4,-14,-100,-100,-100,0,0,100,0.00,40.00,0,-999,0,0.00
2013-12-6,11,5,-1,-100,-100,-100,0,0,100,0.00,40.00,0,-999,0,0.01
2013-12-7,13,9,3,-100,-100,-100,0,0,100,0.00,40.00,0,-999,0,0.01
2013-12-8,2,-3,-11,-100,-100,-100,0,0,100,0.00,40.00,0,-999,0,0.00
2013-12-9,13,6,-9,-100,-100,-100,0,0,100,0.00,40.00,0,-999,0,0.01
2013-12-10,24,17,9,-100,-100,-100,0,0,100,0.00,40.00,0,-999,0,0.00
2013-12-11,26,18,13,-100,-100,-100,0,0,100,0.00,40.00,0,-999,0,0.00
2013-12-12,33,23,19,-100,-100,-100,0,0,100,0.00,40.00,0,-999,0,0.00
2013-12-13,27,21,14,-100,-100,-100,0,0,100,0.00,40.00,0,-999,0,0.00
2013-12-14,30,24,15,-100,-100,-100,0,0,100,0.00,40.00,0,-999,0,0.00
2013-12-15,38,38,37,-100,-100,-100,0,0,100,0.00,40.00,0,-999,0,0.00
2013-12-16,39,32,27,-100,-100,-100,0,0,100,0.00,40.00,0,-999,0,0.00
2013-12-17,43,32,27,-100,-100,-100,0,0,100,0.00,40.00,0,-999,0,0.00
2013-12-18,40,38,36,-100,-100,-100,0,0,100,0.00,40.00,0,-999,0,0.00
2013-12-19,31,25,17,-100,-100,-100,0,0,100,0.00,40.00,0,-999,0,0.02
2013-12-20,19,14,8,-100,-100,-100,0,0,100,0.00,40.00,0,-999,0,0.00
2013-12-21,24,22,20,-100,-100,-100,0,0,100,0.00,40.00,0,-999,0,0.02
2013-12-22,25,23,19,-100,-100,-100,0,0,100,0.00,40.00,0,-999,0,0.01
2013-12-23,30,23,19,-100,-100,-100,0,0,100,0.00,40.00,0,-999,0,0.00
2013-12-24,28,22,15,-100,-100,-100,0,0,100,0.00,40.00,0,-999,0,0.00
2013-12-25,36,31,23,-100,-100,-100,0,0,100,0.00,40.00,0,-999,0,0.00
2013-12-26,32,27,21,-100,-100,-100,0,0,100,0.00,40.00,0,-999,0,0.00
2013-12-27,40,30,24,-100,-100,-100,0,0,100,0.00,40.00,0,-999,0,0.00
2013-12-28,31,28,26,-100,-100,-100,0,0,100,0.00,40.00,0,-999,0,0.00
2013-12-29,28,21,16,-100,-100,-100,0,0,100,0.00,40.00,0,-999,0,0.00
2013-12-30,27,25,23,-100,-100,-100,0,0,100,0.00,40.00,0,-999,0,0.00
2013-12-31,35,31,26,-100,-100,-100,0,0,100,0.00,40.00,0,-999,0,0.00
2014-1-1,31,25,21,-100,-100,-100,0,0,100,0.00,40.00,0,-999,0,0.00
2014-1-2,36,28,23,-100,-100,-100,0,0,100,0.00,40.00,0,-999,0,0.00